Time;durP1;ratioP1;P1;durP2;ratioP2;P2;SDS_P1;SDS_P2;PMS_P1;PMS_P2;Temp;Humidity;BMP_temperature;BMP_pressure;BME280_temperature;BME280_humidity;BME280_pressure;Samples;Min_cycle;Max_cycle;Signal;HPM_P1;HPM_P2
2021/09/28 00:00:31;;;;;;;4.50;2.60;;;;;;;11.40;80.53;100401.22;5025140;28;20386;-64
2021/09/28 00:02:57;;;;;;;7.32;2.88;;;;;;;11.44;79.78;100406.28;5013713;28;20049;-65
2021/09/28 00:05:23;;;;;;;3.63;2.50;;;;;;;11.48;80.07;100414.88;5029023;28;20500;-64
2021/09/28 00:07:49;;;;;;;3.53;2.38;;;;;;;11.47;79.60;100413.16;5030150;28;20081;-65
2021/09/28 00:10:15;;;;;;;4.18;2.67;;;;;;;11.43;78.77;100415.00;5028976;28;20045;-64
2021/09/28 00:12:41;;;;;;;2.65;2.10;;;;;;;11.42;78.43;100412.41;5027676;28;20091;-62
2021/09/28 00:15:09;;;;;;;3.97;2.38;;;;;;;11.38;77.75;100413.41;5009309;28;20048;-63
2021/09/28 00:17:35;;;;;;;3.10;2.00;;;;;;;11.37;77.72;100415.16;5008860;28;20413;-63
2021/09/28 00:20:00;;;;;;;3.97;2.40;;;;;;;11.38;77.06;100423.81;5022654;28;20041;-63
2021/09/28 00:22:26;;;;;;;4.80;1.95;;;;;;;11.32;76.92;100416.16;5029535;28;20045;-63
2021/09/28 00:24:52;;;;;;;6.00;2.17;;;;;;;11.31;77.06;100428.31;5027567;28;20069;-63
2021/09/28 00:27:17;;;;;;;2.90;2.10;;;;;;;11.31;77.15;100428.31;5027117;28;20041;-64
2021/09/28 00:29:43;;;;;;;2.53;1.80;;;;;;;11.29;77.31;100431.88;5022292;28;20045;-63
2021/09/28 00:32:09;;;;;;;2.97;2.13;;;;;;;11.25;77.52;100428.47;5041173;28;20052;-65
2021/09/28 00:34:36;;;;;;;4.90;2.20;;;;;;;11.23;76.82;100432.03;5028991;28;20053;-64
2021/09/28 00:37:02;;;;;;;3.20;2.30;;;;;;;11.14;77.28;100420.09;5012212;28;20491;-63
2021/09/28 00:39:28;;;;;;;3.33;2.20;;;;;;;11.21;77.22;100424.25;5029040;28;20133;-63
2021/09/28 00:41:54;;;;;;;2.90;2.15;;;;;;;11.22;76.94;100430.31;5029654;28;20135;-63
2021/09/28 00:44:45;;;;;;;2.63;1.83;;;;;;;11.13;76.61;100428.78;5010943;28;20052;-64
2021/09/28 00:47:11;;;;;;;2.67;2.00;;;;;;;11.03;76.88;100441.19;5029693;28;20045;-64
2021/09/28 00:49:47;;;;;;;3.90;2.10;;;;;;;10.94;76.58;100433.56;5029119;28;20128;-63
2021/09/28 00:52:17;;;;;;;3.95;2.00;;;;;;;10.87;76.89;100447.63;5029091;28;20045;-63
2021/09/28 00:54:44;;;;;;;3.40;1.85;;;;;;;10.84;77.55;100450.28;5027138;28;20044;-63
2021/09/28 00:57:10;;;;;;;3.30;1.90;;;;;;;10.84;77.45;100452.03;5027872;28;20520;-64
2021/09/28 00:59:38;;;;;;;4.05;1.90;;;;;;;10.77;77.07;100440.09;5028846;28;20049;-64
2021/09/28 01:02:06;;;;;;;4.20;1.80;;;;;;;10.86;77.01;100456.31;5028754;28;20038;-63
2021/09/28 01:04:32;;;;;;;3.33;1.90;;;;;;;10.87;76.81;100455.44;5026899;28;20065;-63
2021/09/28 01:07:01;;;;;;;2.85;1.88;;;;;;;10.90;76.64;100454.50;5029536;28;20084;-63
2021/09/28 01:09:27;;;;;;;2.55;1.80;;;;;;;10.95;76.65;100463.91;5028142;28;20049;-63
2021/09/28 01:11:54;;;;;;;3.13;1.77;;;;;;;10.96;76.54;100473.44;5028373;28;20119;-63
2021/09/28 01:14:19;;;;;;;3.05;1.85;;;;;;;10.98;76.60;100471.66;5027710;28;20160;-63
2021/09/28 01:16:45;;;;;;;4.57;2.08;;;;;;;11.00;76.60;100472.47;5029209;28;20524;-63
2021/09/28 01:19:11;;;;;;;4.10;1.90;;;;;;;11.03;76.59;100479.34;5029235;28;20052;-63
2021/09/28 01:21:38;;;;;;;4.70;2.38;;;;;;;10.98;75.95;100470.81;5028300;28;20141;-63
2021/09/28 01:24:05;;;;;;;4.25;2.25;;;;;;;11.02;75.47;100475.91;5024995;28;20394;-62
2021/09/28 01:26:31;;;;;;;2.03;1.83;;;;;;;10.95;76.16;100465.66;5009779;28;20045;-62
2021/09/28 01:29:00;;;;;;;2.38;1.55;;;;;;;11.02;75.69;100493.25;5024715;28;20138;-63
2021/09/28 01:31:26;;;;;;;3.92;2.20;;;;;;;10.90;76.14;100480.50;5022560;28;20037;-63
2021/09/28 01:33:52;;;;;;;2.88;1.80;;;;;;;10.92;75.53;100490.00;5032326;28;20188;-65
2021/09/28 01:36:18;;;;;;;4.32;1.67;;;;;;;10.89;75.91;100489.19;5032973;28;20361;-63
2021/09/28 01:38:44;;;;;;;2.55;1.80;;;;;;;10.92;76.10;100496.97;5047644;28;20052;-62
2021/09/28 01:41:11;;;;;;;1.92;1.52;;;;;;;10.86;75.60;100500.56;5015054;28;20041;-63
2021/09/28 01:43:37;;;;;;;3.17;1.60;;;;;;;10.84;75.02;100504.91;5031710;28;20129;-63
2021/09/28 01:46:04;;;;;;;5.20;1.77;;;;;;;10.77;75.05;100492.97;5032568;28;20183;-63
2021/09/28 01:48:33;;;;;;;4.32;1.75;;;;;;;10.85;75.31;100513.59;5047903;28;20042;-63
2021/09/28 01:50:59;;;;;;;;;;;;;;;10.85;74.60;100516.19;5015073;28;20055;-62
2021/09/28 01:53:25;;;;;;;5.18;1.60;;;;;;;10.84;74.48;100514.47;5031461;28;19912;-62
2021/09/28 01:55:50;;;;;;;3.13;1.80;;;;;;;10.85;74.12;100516.19;5020459;28;20049;-64
2021/09/28 01:58:17;;;;;;;3.50;1.50;;;;;;;10.79;73.72;100509.38;5036530;28;20045;-63
2021/09/28 02:00:43;;;;;;;3.00;1.60;;;;;;;10.85;73.73;100521.38;5031890;28;20152;-63
2021/09/28 02:03:10;;;;;;;3.05;1.60;;;;;;;10.86;72.95;100523.09;5031814;28;20045;-62
2021/09/28 02:05:36;;;;;;;5.38;1.80;;;;;;;10.84;73.51;100524.88;5031769;28;20091;-64
2021/09/28 02:08:02;;;;;;;4.43;2.00;;;;;;;10.77;73.23;100518.13;5021574;28;20053;-63
2021/09/28 02:10:28;;;;;;;3.25;1.73;;;;;;;10.79;73.58;100527.56;5017225;28;20464;-63
2021/09/28 02:12:54;;;;;;;2.55;1.65;;;;;;;10.75;73.34;100522.47;5059954;28;20048;-63
2021/09/28 02:15:19;;;;;;;2.53;1.80;;;;;;;10.73;73.50;100538.09;5026552;28;20037;-63
2021/09/28 02:17:45;;;;;;;3.65;1.67;;;;;;;10.75;73.53;100531.13;5012560;28;20084;-63
2021/09/28 02:20:11;;;;;;;4.85;2.03;;;;;;;10.74;73.32;100539.81;5011151;28;20208;-63
2021/09/28 02:22:37;;;;;;;2.85;2.00;;;;;;;10.63;73.32;100523.59;5012586;28;20132;-64
2021/09/28 02:25:04;;;;;;;3.97;1.40;;;;;;;10.72;73.31;100539.03;5027870;28;20044;-62
2021/09/28 02:27:29;;;;;;;6.50;1.60;;;;;;;10.66;73.09;100533.09;5011578;28;20189;-62
2021/09/28 02:29:55;;;;;;;3.80;1.77;;;;;;;10.54;73.42;100542.00;5027368;28;20053;-62
2021/09/28 02:32:21;;;;;;;2.75;1.63;;;;;;;10.45;73.74;100540.44;5026873;28;20489;-63
2021/09/28 02:34:47;;;;;;;2.88;1.52;;;;;;;10.41;74.14;100549.19;5030328;28;20033;-63
2021/09/28 02:37:13;;;;;;;3.60;1.60;;;;;;;10.43;73.48;100550.00;5047052;28;20041;-63
2021/09/28 02:39:40;;;;;;;3.10;1.75;;;;;;;10.48;73.50;100550.78;5031074;28;20037;-62
2021/09/28 02:42:07;;;;;;;3.00;1.80;;;;;;;10.52;73.93;100552.41;5032075;28;20052;-63
2021/09/28 02:44:33;;;;;;;3.65;1.63;;;;;;;10.59;73.69;100551.41;5030738;28;20183;-63
2021/09/28 02:46:58;;;;;;;3.15;1.83;;;;;;;10.63;73.74;100550.44;5022364;28;20131;-63
2021/09/28 02:49:24;;;;;;;4.03;1.98;;;;;;;10.61;74.21;100547.03;5031523;28;20187;-63
2021/09/28 02:51:50;;;;;;;6.38;2.60;;;;;;;10.59;74.22;100545.34;5026739;28;20128;-63
2021/09/28 02:54:16;;;;;;;3.05;2.03;;;;;;;10.66;74.58;100557.34;5015687;28;20046;-63
2021/09/28 02:56:44;;;;;;;5.13;2.50;;;;;;;10.63;75.11;100560.84;5031615;28;20044;-64
2021/09/28 02:59:10;;;;;;;4.10;2.30;;;;;;;10.68;74.78;100563.34;5030002;28;20288;-63
2021/09/28 03:01:36;;;;;;;3.13;1.88;;;;;;;10.51;75.52;100540.31;5031195;28;20037;-64
2021/09/28 03:04:01;;;;;;;6.13;2.80;;;;;;;10.66;75.49;100562.56;5031488;28;20529;-63
2021/09/28 03:06:28;;;;;;;4.63;2.90;;;;;;;10.66;76.07;100574.69;5031668;28;20077;-63
2021/09/28 03:08:53;;;;;;;3.67;1.85;;;;;;;10.64;75.34;100566.91;5031008;28;20047;-63
2021/09/28 03:11:19;;;;;;;2.97;1.77;;;;;;;10.63;75.19;100578.19;5031174;28;20577;-63
2021/09/28 03:13:45;;;;;;;2.80;2.10;;;;;;;10.61;75.24;100585.19;5020451;28;20596;-63
2021/09/28 03:16:11;;;;;;;5.05;1.95;;;;;;;10.61;75.14;100585.19;5031310;28;20034;-61
2021/09/28 03:18:37;;;;;;;5.18;1.98;;;;;;;10.60;74.65;100584.34;5030937;28;20037;-64
2021/09/28 03:21:02;;;;;;;2.65;1.65;;;;;;;10.57;74.83;100588.75;5038231;28;20145;-63
2021/09/28 03:23:28;;;;;;;5.13;2.30;;;;;;;10.50;75.39;100595.81;5037684;28;20056;-63
2021/09/28 03:25:54;;;;;;;5.07;2.30;;;;;;;10.28;76.29;100570.25;5034416;28;20037;-63
2021/09/28 03:28:20;;;;;;;5.05;2.20;;;;;;;10.41;76.53;100609.00;5039554;28;20033;-64
2021/09/28 03:30:45;;;;;;;5.32;2.22;;;;;;;10.36;77.53;100609.97;5015513;28;20433;-64
2021/09/28 03:33:11;;;;;;;5.28;2.38;;;;;;;10.33;77.68;100610.88;5036836;28;20052;-63
2021/09/28 03:35:36;;;;;;;4.97;2.70;;;;;;;10.24;78.51;100604.97;5045933;28;20434;-61
2021/09/28 03:38:02;;;;;;;5.53;2.42;;;;;;;10.21;78.17;100611.06;5008621;28;20045;-63
2021/09/28 03:40:29;;;;;;;6.03;3.13;;;;;;;10.20;78.36;100614.59;5010841;28;20030;-64
2021/09/28 03:42:56;;;;;;;4.18;2.85;;;;;;;10.20;78.14;100619.78;5018950;28;20060;-64
2021/09/28 03:45:22;;;;;;;5.63;2.60;;;;;;;10.20;78.44;100618.00;5029129;28;20060;-62
2021/09/28 03:47:48;;;;;;;4.13;2.58;;;;;;;10.19;78.26;100615.47;5023420;28;20049;-63
2021/09/28 03:50:14;;;;;;;4.40;2.67;;;;;;;10.22;78.02;100618.00;5028615;28;20099;-64
2021/09/28 03:52:40;;;;;;;4.70;2.78;;;;;;;10.20;78.35;100620.59;5027404;28;20048;-63
2021/09/28 03:55:06;;;;;;;5.32;3.22;;;;;;;10.22;77.60;100624.94;5026126;28;20053;-63
2021/09/28 03:57:34;;;;;;;6.53;3.10;;;;;;;10.15;77.92;100611.19;5010602;28;20129;-62
2021/09/28 04:00:02;;;;;;;5.82;2.95;;;;;;;10.27;78.04;100630.91;5009338;28;20188;-64
2021/09/28 04:02:30;;;;;;;5.57;3.17;;;;;;;10.26;77.42;100626.63;4993328;28;20045;-67
2021/09/28 04:04:56;;;;;;;4.32;2.70;;;;;;;10.19;77.77;100618.06;5012744;28;20163;-64
2021/09/28 04:07:22;;;;;;;5.60;3.25;;;;;;;10.17;77.91;100614.63;5030358;28;20128;-62
2021/09/28 04:09:48;;;;;;;4.80;3.30;;;;;;;10.25;77.47;100630.94;5028371;28;20115;-62
2021/09/28 04:12:16;;;;;;;6.63;2.90;;;;;;;10.17;77.65;100627.63;5029636;28;20045;-62
2021/09/28 04:14:45;;;;;;;4.78;3.03;;;;;;;10.17;77.37;100638.88;5027928;28;20045;-64
2021/09/28 04:17:11;;;;;;;3.45;2.70;;;;;;;10.09;76.74;100640.72;5028468;28;20547;-64
2021/09/28 04:19:36;;;;;;;5.88;3.13;;;;;;;10.00;76.74;100647.78;5029538;28;20045;-62
2021/09/28 04:22:02;;;;;;;7.05;3.10;;;;;;;9.98;77.31;100649.56;5029769;28;20095;-63
2021/09/28 04:24:28;;;;;;;5.32;3.15;;;;;;;9.96;76.86;100654.78;5027581;28;20175;-63
2021/09/28 04:26:54;;;;;;;4.80;3.22;;;;;;;9.94;77.29;100656.56;5028140;28;20065;-64
2021/09/28 04:29:20;;;;;;;7.40;3.20;;;;;;;9.87;76.82;100648.88;5027869;28;20077;-64
2021/09/28 04:31:46;;;;;;;6.35;3.50;;;;;;;9.96;76.17;100649.59;5028045;28;20037;-64
2021/09/28 04:34:11;;;;;;;5.97;4.05;;;;;;;9.95;76.12;100665.19;5027564;28;20041;-64
2021/09/28 04:36:37;;;;;;;4.07;3.10;;;;;;;9.95;74.98;100668.66;5027933;28;20125;-64
2021/09/28 04:39:03;;;;;;;6.70;3.40;;;;;;;9.82;73.51;100661.94;5028978;28;20556;-64
2021/09/28 04:41:28;;;;;;;5.40;4.32;;;;;;;9.85;73.09;100663.63;5029946;28;20045;-61
2021/09/28 04:43:55;;;;;;;6.10;3.95;;;;;;;9.96;72.51;100685.09;5028576;28;20087;-63
2021/09/28 04:46:20;;;;;;;6.60;3.92;;;;;;;9.98;71.93;100678.16;5030289;28;20057;-63
2021/09/28 04:48:46;;;;;;;5.25;3.97;;;;;;;9.98;71.69;100680.75;5038682;28;20037;-63
2021/09/28 04:51:12;;;;;;;5.22;3.88;;;;;;;9.98;71.53;100676.41;5033127;28;20469;-63
2021/09/28 04:53:38;;;;;;;4.25;3.58;;;;;;;10.05;71.46;100685.81;5011893;28;20060;-62
2021/09/28 04:56:04;;;;;;;6.57;3.90;;;;;;;10.05;70.58;100685.81;5032846;28;20090;-66
2021/09/28 04:58:29;;;;;;;5.25;3.95;;;;;;;10.03;69.57;100694.53;5042261;28;20087;-61
2021/09/28 05:00:55;;;;;;;13.25;4.30;;;;;;;9.99;68.50;100698.06;5041017;28;20049;-71
2021/09/28 05:03:21;;;;;;;6.40;4.35;;;;;;;9.97;68.20;100702.41;5031398;28;20541;-61
2021/09/28 05:05:47;;;;;;;5.40;4.10;;;;;;;9.96;68.34;100706.75;5032942;28;20045;-61
2021/09/28 05:08:12;;;;;;;5.68;4.45;;;;;;;9.99;68.11;100708.44;5033600;28;20044;-63
2021/09/28 05:10:38;;;;;;;6.47;4.32;;;;;;;9.95;68.11;100706.75;5022167;28;20033;-65
2021/09/28 05:13:07;;;;;;;7.78;5.28;;;;;;;9.92;68.10;100702.47;5021665;28;20052;-65
2021/09/28 05:15:33;;;;;;;7.43;4.78;;;;;;;9.88;68.00;100705.16;5037087;28;20041;-54
2021/09/28 05:17:59;;;;;;;7.40;5.30;;;;;;;9.89;68.03;100706.88;5032655;28;20164;-68
2021/09/28 05:20:24;;;;;;;8.77;5.30;;;;;;;10.03;67.94;100723.97;5031234;28;20065;-67
2021/09/28 05:22:50;;;;;;;8.75;5.53;;;;;;;10.05;67.75;100721.31;5035943;28;20091;-69
2021/09/28 05:25:16;;;;;;;8.00;5.18;;;;;;;10.06;67.73;100720.44;5030045;28;20045;-66
2021/09/28 05:27:42;;;;;;;10.75;5.20;;;;;;;10.04;67.95;100727.41;5031179;28;20041;-65
2021/09/28 05:30:08;;;;;;;7.88;4.95;;;;;;;9.97;68.37;100718.00;5027041;28;20040;-65
2021/09/28 05:32:34;;;;;;;7.45;5.03;;;;;;;10.07;68.10;100736.00;5028225;28;22048;-64
2021/09/28 05:35:00;;;;;;;6.90;5.30;;;;;;;10.07;67.81;100738.63;5042230;28;20156;-63
2021/09/28 05:37:26;;;;;;;10.63;5.43;;;;;;;10.11;68.06;100740.28;5021397;28;20045;-63
2021/09/28 05:39:51;;;;;;;7.25;5.45;;;;;;;10.03;68.13;100720.50;5026470;28;20064;-64
2021/09/28 05:42:17;;;;;;;11.70;7.50;;;;;;;10.16;67.94;100748.88;5020008;28;20433;-65
2021/09/28 05:44:43;;;;;;;10.02;5.07;;;;;;;10.18;67.79;100749.75;5028585;28;20049;-64
2021/09/28 05:47:08;;;;;;;10.65;5.03;;;;;;;10.17;68.04;100748.00;5031473;28;20546;-64
2021/09/28 05:49:36;;;;;;;9.80;6.47;;;;;;;10.18;67.90;100752.34;5032030;28;20435;-63
2021/09/28 05:52:07;;;;;;;8.40;5.78;;;;;;;10.05;67.75;100729.97;5041209;28;20052;-61
2021/09/28 05:54:33;;;;;;;14.32;10.15;;;;;;;10.23;67.73;100764.41;5031721;28;20055;-63
2021/09/28 05:56:58;;;;;;;13.85;9.10;;;;;;;10.28;67.02;100759.97;5031571;28;20120;-64
2021/09/28 05:59:24;;;;;;;12.82;8.43;;;;;;;10.33;67.52;100756.44;5018257;28;20141;-63
2021/09/28 06:01:50;;;;;;;8.23;5.10;;;;;;;10.36;66.91;100755.53;5011542;28;20081;-63
2021/09/28 06:04:16;;;;;;;8.50;5.90;;;;;;;10.35;66.63;100731.28;5010834;28;20100;-64
2021/09/28 06:06:42;;;;;;;9.05;5.32;;;;;;;10.52;66.97;100770.00;5021983;28;20037;-63
2021/09/28 06:09:08;;;;;;;11.00;5.57;;;;;;;10.47;66.58;100756.19;5030690;28;20033;-64
2021/09/28 06:11:33;;;;;;;10.75;6.93;;;;;;;10.53;66.69;100769.09;5031831;28;20457;-61
2021/09/28 06:13:59;;;;;;;8.18;5.47;;;;;;;10.46;66.81;100763.16;5021730;28;20058;-58
2021/09/28 06:16:25;;;;;;;6.97;5.03;;;;;;;10.56;67.51;100780.31;5024708;28;20071;-67
2021/09/28 06:18:51;;;;;;;8.57;5.80;;;;;;;10.55;67.25;100778.59;5032003;28;20039;-62
2021/09/28 06:21:16;;;;;;;9.10;6.20;;;;;;;10.50;66.87;100777.81;5033127;28;20053;-63
2021/09/28 06:23:42;;;;;;;12.77;6.30;;;;;;;10.60;67.71;100779.38;5047673;28;20041;-63
2021/09/28 06:26:08;;;;;;;10.93;5.55;;;;;;;10.49;67.72;100767.44;5050666;28;20129;-62
2021/09/28 06:28:36;;;;;;;14.07;6.18;;;;;;;10.60;68.04;100789.78;5017028;28;20109;-64
2021/09/28 06:31:03;;;;;;;16.20;5.95;;;;;;;10.54;67.81;100778.63;5025480;28;20045;-62
2021/09/28 06:33:28;;;;;;;11.77;6.47;;;;;;;10.55;67.62;100786.41;5030329;28;20060;-63
2021/09/28 06:35:54;;;;;;;13.75;6.05;;;;;;;10.54;67.33;100794.22;5035482;28;20041;-66
2021/09/28 06:38:20;;;;;;;18.20;6.78;;;;;;;10.52;68.29;100791.63;5027023;28;20041;-49
2021/09/28 06:40:45;;;;;;;19.05;7.55;;;;;;;10.52;68.02;100794.22;5036960;28;20095;-48
2021/09/28 06:43:11;;;;;;;12.43;7.13;;;;;;;10.57;67.69;100794.19;5039831;28;20044;-49
2021/09/28 06:45:37;;;;;;;10.40;6.80;;;;;;;10.59;67.10;100800.19;5049506;28;20064;-48
2021/09/28 06:48:02;;;;;;;8.30;5.32;;;;;;;10.56;67.08;100798.53;5051761;28;20045;-50
2021/09/28 06:50:28;;;;;;;14.65;5.63;;;;;;;10.48;66.74;100782.16;5050640;28;20040;-52
2021/09/28 06:52:54;;;;;;;11.40;5.85;;;;;;;10.54;67.00;100800.28;5048850;28;20037;-50
2021/09/28 06:55:20;;;;;;;21.15;8.63;;;;;;;10.50;66.92;100811.63;5050087;28;20138;-50
2021/09/28 06:57:46;;;;;;;10.23;5.95;;;;;;;10.46;66.90;100809.09;5050986;28;20455;-50
2021/09/28 07:00:13;;;;;;;10.13;5.95;;;;;;;10.41;67.17;100796.19;5050932;28;20044;-48
2021/09/28 07:02:38;;;;;;;13.88;5.80;;;;;;;10.48;67.17;100808.16;5051241;28;20122;-50
2021/09/28 07:05:15;;;;;;;10.25;6.25;;;;;;;10.44;66.79;100806.50;5050832;28;20094;-49
2021/09/28 07:07:41;;;;;;;10.27;5.90;;;;;;;10.42;66.76;100818.66;5049973;28;20559;-49
2021/09/28 07:10:07;;;;;;;9.90;5.95;;;;;;;10.42;66.91;100803.06;5031823;28;20424;-48
2021/09/28 07:12:35;;;;;;;7.60;5.55;;;;;;;10.50;66.69;100814.22;5013599;28;20127;-49
2021/09/28 07:15:01;;;;;;;8.07;5.28;;;;;;;10.51;66.52;100818.53;5028543;28;20099;-50
2021/09/28 07:17:28;;;;;;;11.43;6.47;;;;;;;10.51;66.81;100817.69;5026255;28;20029;-52
2021/09/28 07:19:54;;;;;;;10.95;6.15;;;;;;;10.50;66.76;100826.34;5009337;28;20060;-51
2021/09/28 07:22:19;;;;;;;10.40;6.75;;;;;;;10.36;66.60;100799.72;5009289;28;20113;-49
2021/09/28 07:24:45;;;;;;;8.07;5.63;;;;;;;10.39;66.84;100820.47;5009972;28;20442;-54
2021/09/28 07:27:11;;;;;;;9.07;5.35;;;;;;;10.37;65.95;100819.63;5009381;28;20084;-48
2021/09/28 07:29:37;;;;;;;10.35;5.40;;;;;;;10.31;65.68;100819.72;5010563;28;20077;-47
2021/09/28 07:32:03;;;;;;;6.97;4.72;;;;;;;10.42;65.79;100838.59;5062061;28;20071;-49
2021/09/28 07:34:31;;;;;;;10.88;6.68;;;;;;;10.47;65.15;100839.38;5030225;28;20045;-52
2021/09/28 07:36:57;;;;;;;18.58;8.90;;;;;;;10.49;65.41;100846.28;5045462;28;20037;-50
2021/09/28 07:39:24;;;;;;;13.55;6.65;;;;;;;10.54;65.47;100846.22;5029175;28;20125;-51
2021/09/28 07:41:50;;;;;;;6.60;5.10;;;;;;;10.61;64.68;100840.91;5028016;28;20053;-53
2021/09/28 07:44:16;;;;;;;11.45;5.80;;;;;;;10.67;65.05;100858.16;5009889;28;20115;-49
2021/09/28 07:46:42;;;;;;;11.27;6.20;;;;;;;10.78;64.49;100848.41;5010318;28;20144;-51
2021/09/28 07:49:07;;;;;;;13.38;6.05;;;;;;;10.86;64.85;100856.09;5010900;28;20069;-48
2021/09/28 07:51:33;;;;;;;10.13;5.50;;;;;;;10.86;64.06;100856.09;5010469;28;20421;-49
2021/09/28 07:53:59;;;;;;;9.68;5.80;;;;;;;10.94;63.60;100857.69;5010452;28;20049;-53
2021/09/28 07:56:26;;;;;;;10.23;5.40;;;;;;;11.00;63.85;100849.78;5025834;28;20048;-51
2021/09/28 07:58:52;;;;;;;9.90;5.53;;;;;;;11.13;63.58;100863.44;5010614;28;20148;-48
2021/09/28 08:01:17;;;;;;;8.50;5.55;;;;;;;11.13;63.52;100849.56;5010464;28;20132;-49
2021/09/28 08:03:44;;;;;;;12.57;5.20;;;;;;;11.20;63.12;100859.00;5010408;28;20034;-51
2021/09/28 08:06:10;;;;;;;10.35;6.10;;;;;;;11.27;62.89;100852.78;5010312;28;20038;-49
2021/09/28 08:08:36;;;;;;;11.73;5.00;;;;;;;11.43;62.96;100860.28;5010558;28;20069;-52
2021/09/28 08:11:01;;;;;;;9.25;5.32;;;;;;;11.62;61.90;100849.50;5014990;28;20047;-48
2021/09/28 08:13:27;;;;;;;9.05;4.60;;;;;;;11.83;60.81;100862.97;5028441;28;20520;-52
2021/09/28 08:15:54;;;;;;;11.13;4.75;;;;;;;11.84;60.20;100861.22;5030071;28;20124;-49
2021/09/28 08:18:19;;;;;;;9.20;4.55;;;;;;;11.87;60.63;100867.25;5029620;28;20107;-49
2021/09/28 08:20:46;;;;;;;9.43;4.72;;;;;;;11.72;59.82;100858.84;5029695;28;20489;-53
2021/09/28 08:23:12;;;;;;;11.60;4.90;;;;;;;11.75;59.61;100875.31;5029707;28;20037;-48
2021/09/28 08:31:03;;;;;;;27.30;17.85;;;;;;;11.62;59.91;100878.16;5024343;28;20128;-50
2021/09/28 08:33:32;;;;;;;11.57;5.38;;;;;;;11.70;60.08;100876.25;5029223;28;20162;-49
2021/09/28 08:35:58;;;;;;;9.40;5.50;;;;;;;11.69;60.36;100853.69;5028108;28;20041;-50
2021/09/28 08:38:25;;;;;;;10.38;5.60;;;;;;;11.92;59.92;100874.13;5027715;28;20140;-51
2021/09/28 08:40:51;;;;;;;11.93;5.22;;;;;;;11.86;59.83;100862.06;5029431;28;20092;-50
2021/09/28 08:43:17;;;;;;;7.45;4.80;;;;;;;12.00;59.19;100878.25;5028849;28;20049;-47
2021/09/28 08:45:43;;;;;;;9.50;5.75;;;;;;;12.02;59.09;100881.72;5029333;28;20056;-49
2021/09/28 08:48:15;;;;;;;7.70;4.30;;;;;;;12.03;58.26;100885.19;5029484;28;20057;-50
2021/09/28 08:50:44;;;;;;;11.07;4.45;;;;;;;11.91;58.11;100857.63;5028135;28;20037;-54
2021/09/28 08:53:13;;;;;;;5.80;4.10;;;;;;;12.07;57.33;100884.22;5028467;28;20091;-51
2021/09/28 08:55:39;;;;;;;5.72;3.80;;;;;;;11.97;57.42;100872.25;5029610;28;20061;-48
2021/09/28 08:58:22;;;;;;;8.15;4.05;;;;;;;12.07;56.59;100890.28;5029422;28;20497;-49
2021/09/28 09:00:50;;;;;;;5.63;3.97;;;;;;;11.99;56.73;100894.78;5028155;28;20037;-49
2021/09/28 09:03:33;;;;;;;7.68;4.40;;;;;;;11.90;57.44;100892.38;5009108;28;20056;-49
2021/09/28 09:06:00;;;;;;;9.82;4.90;;;;;;;11.78;56.87;100872.63;5024367;28;20401;-48
2021/09/28 09:08:29;;;;;;;7.28;4.20;;;;;;;11.87;57.14;100900.28;5008146;28;20073;-51
2021/09/28 09:11:00;;;;;;;8.25;4.15;;;;;;;11.83;57.37;100904.66;5009320;28;20115;-48
2021/09/28 09:13:35;;;;;;;7.45;5.15;;;;;;;11.79;57.81;100897.81;5009650;28;20065;-49
2021/09/28 09:16:01;;;;;;;7.93;4.90;;;;;;;11.68;57.85;100893.66;5029040;28;20046;-48
2021/09/28 09:18:27;;;;;;;13.05;6.65;;;;;;;11.69;58.44;100909.25;5028941;28;20054;-51
2021/09/28 09:20:52;;;;;;;14.10;7.75;;;;;;;11.69;58.58;100913.63;5027798;28;20428;-49
2021/09/28 09:23:32;;;;;;;9.13;5.75;;;;;;;11.64;58.78;100905.03;5027400;28;20049;-51
2021/09/28 09:26:07;;;;;;;;;;;;;;;11.64;59.29;100920.66;5029539;28;20041;-49
2021/09/28 09:28:38;;;;;;;8.23;5.20;;;;;;;11.65;59.42;100914.56;5027585;28;19917;-48
2021/09/28 09:31:08;;;;;;;8.65;5.07;;;;;;;11.73;58.99;100917.91;5022012;28;20045;-50
2021/09/28 09:33:34;;;;;;;13.90;6.25;;;;;;;11.70;59.22;100915.34;5026443;28;20037;-50
2021/09/28 09:36:00;;;;;;;13.80;5.60;;;;;;;11.69;59.46;100913.63;5026513;28;20569;-50
2021/09/28 09:38:26;;;;;;;8.32;5.18;;;;;;;11.72;59.66;100926.59;5027440;28;20045;-52
2021/09/28 09:40:53;;;;;;;5.78;4.57;;;;;;;11.62;59.37;100907.66;5028032;28;20044;-49
2021/09/28 09:43:29;;;;;;;7.22;4.60;;;;;;;11.58;59.55;100918.16;5027363;28;20128;-51
2021/09/28 09:46:11;;;;;;;9.63;4.80;;;;;;;11.69;59.46;100930.09;5028525;28;20053;-48
2021/09/28 09:48:37;;;;;;;7.72;4.97;;;;;;;11.70;59.70;100934.44;5028991;28;20048;-50
2021/09/28 09:51:08;;;;;;;7.78;4.53;;;;;;;11.67;59.38;100934.47;5032402;28;20535;-52
2021/09/28 09:53:50;;;;;;;8.10;5.22;;;;;;;11.65;59.72;100940.63;5032212;28;20088;-50
2021/09/28 09:56:17;;;;;;;11.80;5.10;;;;;;;11.72;59.48;100939.63;5014749;28;20040;-48
2021/09/28 09:58:42;;;;;;;10.15;5.05;;;;;;;11.95;58.93;100936.59;5031574;28;20045;-49
2021/09/28 10:01:08;;;;;;;7.45;5.10;;;;;;;13.03;56.72;100938.50;5032213;28;20419;-47
2021/09/28 10:03:38;;;;;;;11.48;5.13;;;;;;;13.38;55.80;100937.66;5031903;28;20049;-51
2021/09/28 10:06:06;;;;;;;10.43;5.15;;;;;;;13.47;55.74;100937.41;5030791;28;20531;-53
2021/09/28 10:08:32;;;;;;;9.27;6.00;;;;;;;13.63;55.15;100944.84;5030677;28;20132;-51
2021/09/28 10:10:58;;;;;;;12.05;4.85;;;;;;;13.86;54.20;100947.72;5030537;28;20029;-48
2021/09/28 10:13:46;;;;;;;7.72;5.10;;;;;;;14.00;53.42;100942.94;5030516;28;20099;-49
2021/09/28 10:16:34;;;;;;;10.90;5.20;;;;;;;14.11;52.89;100948.75;5031910;28;20068;-50
2021/09/28 10:19:01;;;;;;;9.90;5.40;;;;;;;14.39;52.30;100933.97;5015940;28;20085;-50
2021/09/28 10:21:36;;;;;;;7.85;5.53;;;;;;;14.69;51.11;100929.56;5046516;28;20038;-53
2021/09/28 10:24:17;;;;;;;5.93;4.45;;;;;;;14.84;50.77;100936.94;5031460;28;20049;-53
2021/09/28 10:26:44;;;;;;;6.50;4.55;;;;;;;15.22;50.04;100938.31;5031868;28;20084;-52
2021/09/28 10:29:38;;;;;;;8.52;5.00;;;;;;;15.22;49.66;100940.06;5031021;28;20045;-49
2021/09/28 10:35:08;;;;;;;9.35;4.93;;;;;;;15.00;50.15;100936.44;5027278;28;20049;-49
2021/09/28 10:37:42;;;;;;;10.55;4.80;;;;;;;15.03;50.43;100936.34;5031165;28;20057;-50
2021/09/28 10:40:28;;;;;;;6.68;4.30;;;;;;;15.48;49.23;100933.94;5031463;28;20030;-53
2021/09/28 10:42:58;;;;;;;6.82;4.60;;;;;;;15.76;48.12;100932.09;5027021;28;20132;-50
2021/09/28 10:45:27;;;;;;;7.72;4.32;;;;;;;15.80;47.87;100938.97;5030668;28;20123;-50
2021/09/28 10:47:54;;;;;;;6.88;4.13;;;;;;;15.79;47.84;100939.00;5030803;28;20046;-48
2021/09/28 10:50:33;;;;;;;8.93;4.18;;;;;;;15.75;47.82;100935.66;5031447;28;20045;-49
2021/09/28 10:53:19;;;;;;;6.00;4.18;;;;;;;15.96;46.99;100940.09;5031224;28;20056;-50
2021/09/28 10:55:59;;;;;;;5.18;4.07;;;;;;;15.99;46.31;100937.38;5031072;28;20047;-50
2021/09/28 10:58:27;;;;;;;6.55;4.75;;;;;;;17.88;43.51;100938.50;5030917;28;20159;-49
2021/09/28 11:00:56;;;;;;;5.85;4.20;;;;;;;19.86;40.53;100935.84;5029178;28;20041;-54
2021/09/28 11:03:44;;;;;;;6.03;3.83;;;;;;;19.93;39.80;100939.03;5030524;28;20051;-52
2021/09/28 11:06:11;;;;;;;6.22;5.10;;;;;;;19.56;40.32;100945.38;5029382;28;20045;-48
2021/09/28 11:08:37;;;;;;;9.55;5.75;;;;;;;19.23;40.60;100937.34;5030726;28;20072;-48
2021/09/28 11:11:06;;;;;;;7.75;4.90;;;;;;;20.54;38.55;100943.66;5030672;28;20060;-49
2021/09/28 11:13:34;;;;;;;9.35;5.47;;;;;;;21.51;36.96;100938.06;5029070;28;20130;-52
2021/09/28 11:16:04;;;;;;;8.45;4.53;;;;;;;22.68;35.18;100928.06;5047451;28;20584;-51
2021/09/28 11:18:31;;;;;;;10.00;4.68;;;;;;;24.05;32.66;100932.94;5050753;28;20049;-49
2021/09/28 11:21:13;;;;;;;7.82;5.55;;;;;;;24.43;31.64;100927.59;5035857;28;20487;-49
2021/09/28 11:23:40;;;;;;;8.00;6.05;;;;;;;23.30;32.81;100933.72;5030305;28;20068;-49
2021/09/28 11:26:06;;;;;;;6.75;4.32;;;;;;;22.13;33.20;100923.66;5030527;28;20080;-49
2021/09/28 11:28:32;;;;;;;5.10;3.70;;;;;;;21.07;34.27;100922.97;5029326;28;20068;-50
2021/09/28 11:30:58;;;;;;;8.65;4.63;;;;;;;20.20;35.18;100928.78;5024368;28;20037;-49
2021/09/28 11:33:24;;;;;;;5.90;4.40;;;;;;;19.58;36.28;100929.44;5028776;28;20528;-49